Time;durP1;ratioP1;P1;durP2;ratioP2;P2;SDS_P1;SDS_P2;PMS_P1;PMS_P2;Temp;Humidity;BMP_temperature;BMP_pressure;BME280_temperature;BME280_humidity;BME280_pressure;Samples;Min_cycle;Max_cycle;Signal;HPM_P1;HPM_P2
2022/02/04 00:20:06;;;;;;;41.88;17.35;;;;;;;-2.00;77.75;147176.09;1801832;78;21405;-62
2022/02/04 00:23:33;;;;;;;89.13;34.10;;;;;;;-2.38;73.98;147082.33;1752012;80;22779;-61
2022/02/04 00:26:05;;;;;;;78.52;32.42;;;;;;;-2.44;73.73;147068.19;1749044;80;21590;-62
2022/02/04 00:31:14;;;;;;;157.50;66.15;;;;;;;-2.51;74.59;147050.22;1751911;80;21553;-61
2022/02/04 00:33:31;;;;;;;53.58;20.65;;;;;;;-2.54;74.60;147042.47;1743140;81;21857;-63
2022/02/04 00:36:05;;;;;;;56.47;25.13;;;;;;;-2.59;74.56;147030.95;1746883;81;21541;-61
2022/02/04 00:38:34;;;;;;;46.92;21.05;;;;;;;-2.62;74.52;147024.52;1746978;80;21091;-61
2022/02/04 00:41:08;;;;;;;77.67;34.13;;;;;;;-2.66;74.74;147014.25;1744646;81;21307;-61
2022/02/04 00:43:33;;;;;;;37.67;15.98;;;;;;;-2.68;75.07;147009.12;1746809;81;26778;-61
2022/02/04 00:48:41;;;;;;;9.70;4.50;;;;;;;-2.76;75.85;146989.86;1746652;81;21433;-62
2022/02/04 00:51:10;;;;;;;10.95;5.33;;;;;;;-2.78;76.10;146984.72;1746688;81;22120;-62
2022/02/04 00:56:13;;;;;;;20.15;9.18;;;;;;;-2.85;76.50;146965.45;1753160;80;21628;-60
2022/02/04 01:28:25;;;;;;;124.30;50.10;;;;;;;-3.31;79.05;146853.81;1744180;81;21575;-61
2022/02/04 01:30:54;;;;;;;60.30;26.73;;;;;;;-3.32;79.25;146849.94;1750484;81;21464;-61
2022/02/04 01:33:21;;;;;;;31.13;11.90;;;;;;;-3.32;79.65;146849.94;1783089;79;21037;-62
2022/02/04 01:35:48;;;;;;;11.05;5.30;;;;;;;-3.33;80.33;146848.63;1781535;79;21125;-61
2022/02/04 01:38:16;;;;;;;9.98;3.75;;;;;;;-3.34;80.27;146844.81;1786773;78;21092;-60
2022/02/04 01:40:42;;;;;;;7.13;4.00;;;;;;;-3.37;80.37;146838.37;1782449;78;21105;-61
2022/02/04 01:43:09;;;;;;;8.85;4.15;;;;;;;-3.40;80.11;146830.69;1794904;79;21123;-61
2022/02/04 01:45:36;;;;;;;9.00;4.57;;;;;;;-3.42;79.81;146825.56;1775774;79;21307;-61
2022/02/04 01:48:04;;;;;;;8.33;3.70;;;;;;;-3.45;79.86;146817.86;1784576;78;21527;-60
2022/02/04 01:50:32;;;;;;;11.53;3.52;;;;;;;-3.48;79.71;146811.42;1789298;79;21031;-61
2022/02/04 01:53:00;;;;;;;8.77;3.90;;;;;;;-3.49;79.39;146808.86;1792784;78;21547;-61
2022/02/04 01:55:27;;;;;;;9.60;5.03;;;;;;;-3.50;79.42;146806.30;1788274;79;21529;-61
2022/02/04 01:57:53;;;;;;;8.27;4.40;;;;;;;-3.50;79.25;146805.03;1790119;78;21421;-61
2022/02/04 02:00:20;;;;;;;7.37;4.10;;;;;;;-3.51;79.28;146803.73;1789453;78;22256;-61
2022/02/04 02:02:46;;;;;;;9.97;4.00;;;;;;;-3.52;79.28;146801.17;1791123;78;21055;-61
2022/02/04 02:05:13;;;;;;;8.03;3.47;;;;;;;-3.51;79.21;146802.47;1793575;78;21027;-60
2022/02/04 02:07:45;;;;;;;10.23;3.90;;;;;;;-3.52;79.30;146801.17;1785686;78;22120;-61
2022/02/04 02:10:13;;;;;;;12.73;5.22;;;;;;;-3.52;79.38;146801.17;1743138;79;21086;-62
2022/02/04 02:12:53;;;;;;;17.33;7.33;;;;;;;-3.53;79.17;146798.59;1779965;79;22021;-61
2022/02/04 02:15:20;;;;;;;36.20;13.97;;;;;;;-3.51;78.74;146803.73;1777448;79;21024;-61
2022/02/04 02:42:33;;;;;;;148.90;55.33;;;;;;;-3.52;81.10;146801.17;1746736;80;21021;-61
2022/02/04 02:47:52;;;;;;;67.47;24.55;;;;;;;-3.56;81.80;146790.91;1790581;78;22142;-61
2022/02/04 03:00:43;;;;;;;128.33;51.73;;;;;;;-3.66;82.71;146766.53;1789415;78;21039;-61
2022/02/04 03:03:05;;;;;;;21.43;9.30;;;;;;;-3.69;82.76;146758.84;1749794;79;21084;-61
2022/02/04 03:05:27;;;;;;;13.67;5.33;;;;;;;-3.70;82.85;146754.97;1733150;81;21243;-60
2022/02/04 03:07:53;;;;;;;38.37;15.53;;;;;;;-3.76;82.84;146742.16;1755652;79;21444;-61
2022/02/04 03:10:20;;;;;;;12.23;5.53;;;;;;;-3.80;82.89;146731.91;1755041;79;21519;-61
2022/02/04 03:12:48;;;;;;;10.13;4.83;;;;;;;-3.84;82.93;146721.64;1741958;80;21130;-60
2022/02/04 03:15:15;;;;;;;9.83;4.37;;;;;;;-3.88;82.96;146711.34;1731013;81;21049;-61
2022/02/04 03:17:45;;;;;;;10.93;4.33;;;;;;;-3.89;82.99;146708.78;1728373;81;21976;-61
2022/02/04 03:20:13;;;;;;;6.83;3.07;;;;;;;-3.93;83.11;146698.53;1730604;82;21132;-62
2022/02/04 03:22:40;;;;;;;14.90;6.03;;;;;;;-3.95;83.32;146694.70;1734595;81;21521;-61
2022/02/04 03:25:11;;;;;;;30.90;11.93;;;;;;;-3.97;83.46;146689.58;1724828;81;21668;-60
2022/02/04 03:27:47;;;;;;;13.00;6.13;;;;;;;-3.99;83.51;146684.41;1780974;79;21515;-60
2022/02/04 03:30:17;;;;;;;15.80;6.47;;;;;;;-4.00;83.65;146681.84;1785030;79;21472;-61
2022/02/04 03:32:45;;;;;;;24.10;10.43;;;;;;;-4.00;83.82;146680.59;1790590;78;21603;-60
2022/02/04 03:35:08;;;;;;;16.90;6.60;;;;;;;-4.02;83.84;146676.72;1785531;79;21069;-60
2022/02/04 03:37:35;;;;;;;12.00;5.70;;;;;;;-4.03;84.02;146675.47;1758704;80;21057;-61
2022/02/04 03:40:02;;;;;;;28.37;9.20;;;;;;;-4.04;84.11;146671.59;1755460;80;21116;-61
2022/02/04 03:42:29;;;;;;;13.37;5.80;;;;;;;-4.05;84.21;146669.03;1757310;80;23134;-61
2022/02/04 03:44:56;;;;;;;12.33;4.80;;;;;;;-4.07;84.24;146665.22;1782430;78;21046;-61
2022/02/04 03:47:23;;;;;;;8.97;4.43;;;;;;;-4.08;84.21;146662.64;1779748;79;21078;-61
2022/02/04 03:49:49;;;;;;;9.77;4.50;;;;;;;-4.10;84.30;146657.47;1761877;80;21130;-61
2022/02/04 03:52:16;;;;;;;22.27;9.43;;;;;;;-4.11;84.28;146654.91;1756644;80;21450;-61
2022/02/04 03:54:44;;;;;;;10.53;5.17;;;;;;;-4.10;84.17;146657.47;1725969;81;21138;-61
2022/02/04 03:57:10;;;;;;;36.43;14.07;;;;;;;-4.10;84.26;146656.22;1741071;81;21103;-60
2022/02/04 03:59:37;;;;;;;19.63;7.20;;;;;;;-4.11;84.32;146653.66;1737430;81;21044;-61
2022/02/04 04:02:04;;;;;;;11.03;4.97;;;;;;;-4.12;84.31;146652.34;1759115;79;21313;-61
2022/02/04 04:04:33;;;;;;;10.67;4.80;;;;;;;-4.12;84.23;146652.34;1759873;80;21041;-61
2022/02/04 04:07:00;;;;;;;11.53;4.80;;;;;;;-4.13;84.03;146649.78;1785683;78;21557;-61
2022/02/04 04:09:28;;;;;;;12.17;4.50;;;;;;;-4.12;83.95;146652.34;1782243;78;21109;-61
2022/02/04 04:11:55;;;;;;;12.97;4.90;;;;;;;-4.10;83.87;146657.47;1788988;78;21051;-60
2022/02/04 04:14:22;;;;;;;15.70;5.13;;;;;;;-4.08;83.85;146662.64;1776726;79;20993;-61
2022/02/04 04:16:49;;;;;;;13.57;5.03;;;;;;;-4.06;83.82;146667.78;1783363;78;21049;-64
2022/02/04 04:19:16;;;;;;;14.97;5.40;;;;;;;-4.02;83.78;146676.72;1757942;79;21434;-61
2022/02/04 04:21:42;;;;;;;13.10;5.43;;;;;;;-4.00;83.66;146681.84;1784063;78;21075;-60
2022/02/04 04:24:09;;;;;;;12.27;5.40;;;;;;;-3.97;83.52;146689.58;1785346;79;21029;-61
2022/02/04 04:26:38;;;;;;;11.60;5.10;;;;;;;-3.94;83.47;146695.97;1789830;78;21092;-61
2022/02/04 04:29:05;;;;;;;10.43;4.97;;;;;;;-3.91;83.33;146703.66;1786740;78;21510;-61
2022/02/04 04:31:32;;;;;;;10.40;4.83;;;;;;;-3.89;83.26;146708.78;1788295;78;21792;-62
2022/02/04 04:33:59;;;;;;;10.40;5.33;;;;;;;-3.88;83.20;146711.34;1778281;79;21069;-60
2022/02/04 04:36:26;;;;;;;12.83;4.70;;;;;;;-3.88;83.14;146711.34;1786127;79;21037;-61
2022/02/04 04:39:01;;;;;;;10.90;4.57;;;;;;;-3.87;83.19;146712.66;1783276;78;21047;-60
2022/02/04 04:41:35;;;;;;;11.10;4.73;;;;;;;-3.88;83.19;146711.34;1783133;78;21124;-61
2022/02/04 05:30:01;;;;;;;11.10;5.27;;;;;;;-4.44;84.63;146572.87;1791021;77;20481;-61
2022/02/04 05:32:28;;;;;;;11.37;5.20;;;;;;;-4.46;84.74;146569.00;1793616;78;21492;-61
2022/02/04 05:34:55;;;;;;;15.20;5.17;;;;;;;-4.46;84.83;146567.75;1796225;78;21541;-60
2022/02/04 05:37:23;;;;;;;12.37;4.97;;;;;;;-4.45;84.84;146570.31;1800933;77;21108;-60
2022/02/04 05:39:57;;;;;;;13.60;5.20;;;;;;;-4.42;84.82;146576.69;1786602;77;21653;-61
2022/02/04 05:42:26;;;;;;;13.47;5.70;;;;;;;-4.37;84.83;146590.81;1794865;77;21039;-62
2022/02/04 05:44:57;;;;;;;9.93;4.70;;;;;;;-4.27;84.73;146613.91;1808875;78;21111;-61
2022/02/04 05:47:24;;;;;;;10.72;4.80;;;;;;;-4.19;84.51;146635.72;1799723;77;20972;-61
2022/02/04 05:52:35;;;;;;;12.93;4.80;;;;;;;-3.98;83.87;146685.72;1793006;78;21506;-61
2022/02/04 05:57:38;;;;;;;17.23;6.70;;;;;;;-3.82;83.33;146726.78;1797907;77;21121;-61
2022/02/04 06:02:39;;;;;;;23.50;7.57;;;;;;;-3.69;82.59;146757.53;1795362;77;22418;-62
2022/02/04 06:05:10;;;;;;;14.43;6.47;;;;;;;-3.63;82.29;146774.22;1789201;78;21016;-61
2022/02/04 06:23:30;;;;;;;12.58;5.58;;;;;;;-2.83;79.75;146971.91;1801121;78;21099;-61
2022/02/04 06:25:57;;;;;;;14.27;5.30;;;;;;;-2.69;79.19;147005.25;1795137;78;21043;-61
2022/02/04 06:28:25;;;;;;;15.97;5.93;;;;;;;-2.55;78.92;147039.91;1742806;78;21898;-60
2022/02/04 06:30:52;;;;;;;15.10;5.55;;;;;;;-2.44;77.94;147068.19;1798512;78;21037;-61
2022/02/04 06:33:19;;;;;;;13.55;6.20;;;;;;;-2.35;77.32;147091.28;1791379;78;21028;-60
2022/02/04 06:35:45;;;;;;;15.80;5.67;;;;;;;-2.24;76.86;147117.00;1801494;78;21096;-61
2022/02/04 06:38:12;;;;;;;9.58;4.72;;;;;;;-2.14;76.43;147142.67;1802353;78;21598;-61
2022/02/04 06:40:39;;;;;;;14.53;5.28;;;;;;;-2.07;75.05;147160.69;1794469;78;21535;-63
2022/02/04 06:43:05;;;;;;;13.30;4.90;;;;;;;-2.00;74.60;147176.09;1800484;78;21546;-61
2022/02/04 06:45:32;;;;;;;9.53;4.40;;;;;;;-1.91;73.73;147199.20;1805092;78;21069;-62
2022/02/04 06:47:59;;;;;;;11.73;3.80;;;;;;;-1.85;72.46;147214.66;1795872;77;21139;-60
2022/02/04 06:50:25;;;;;;;9.30;4.20;;;;;;;-1.84;71.00;147215.92;1798928;78;21009;-61
2022/02/04 06:52:53;;;;;;;38.17;15.32;;;;;;;-1.86;71.12;147212.09;1800360;78;21473;-62
2022/02/04 06:55:21;;;;;;;152.00;58.58;;;;;;;-1.88;71.27;147208.22;1798479;77;20979;-62
2022/02/04 06:57:48;;;;;;;57.70;24.95;;;;;;;-1.86;71.06;147212.09;1799148;78;21543;-62
2022/02/04 07:00:17;;;;;;;58.68;24.27;;;;;;;-1.87;71.07;147209.53;1802172;78;21103;-61
2022/02/04 07:02:46;;;;;;;21.33;8.45;;;;;;;-1.87;71.32;147209.53;1804793;77;21100;-61
2022/02/04 07:05:15;;;;;;;25.15;9.33;;;;;;;-1.87;71.62;147209.53;1796536;78;22484;-61
2022/02/04 07:07:48;;;;;;;22.95;7.30;;;;;;;-1.82;71.98;147222.36;1800785;77;21075;-62
2022/02/04 07:10:21;;;;;;;13.55;5.45;;;;;;;-1.78;71.90;147232.62;1798427;78;21098;-61
2022/02/04 07:13:00;;;;;;;13.62;4.33;;;;;;;-1.72;71.46;147246.78;1799369;78;21044;-61
2022/02/04 07:19:44;;;;;;;19.12;8.35;;;;;;;-1.65;70.40;147263.50;1803046;78;21360;-61
2022/02/04 07:20:28;;;;;;;22.98;8.93;;;;;;;-1.67;69.81;147258.31;1792012;78;21062;-60
2022/02/04 07:22:55;;;;;;;17.35;8.10;;;;;;;-1.65;69.98;147263.50;1803004;78;21600;-62
2022/02/04 07:25:23;;;;;;;14.47;5.08;;;;;;;-1.61;70.11;147273.77;1797278;77;21042;-61
2022/02/04 07:27:50;;;;;;;17.07;4.12;;;;;;;-1.50;70.32;147300.77;1765056;79;21128;-60
2022/02/04 07:30:19;;;;;;;10.28;4.10;;;;;;;-1.34;70.17;147340.59;1786988;78;21671;-60
2022/02/04 07:32:57;;;;;;;13.38;4.92;;;;;;;-1.20;69.34;147375.30;1779905;79;20989;-60
2022/02/04 07:35:32;;;;;;;7.83;3.50;;;;;;;-1.11;68.20;147397.17;1784368;79;21016;-61
2022/02/04 07:43:14;;;;;;;31.30;13.65;;;;;;;-1.11;67.14;147397.17;1789086;79;22522;-62
2022/02/04 07:45:42;;;;;;;10.38;5.08;;;;;;;-1.06;67.58;147410.02;1788771;79;21116;-62
2022/02/04 07:48:09;;;;;;;80.50;35.33;;;;;;;-1.00;67.26;147425.44;1789684;79;21528;-62
2022/02/04 07:50:36;;;;;;;43.38;19.32;;;;;;;-0.95;67.09;147438.33;1754479;80;21368;-61
2022/02/04 07:53:03;;;;;;;13.68;7.00;;;;;;;-0.92;66.91;147446.03;1732601;80;21075;-62
2022/02/04 07:55:30;;;;;;;10.60;3.70;;;;;;;-0.88;66.50;147456.31;1755460;79;21084;-62
2022/02/04 07:57:58;;;;;;;34.67;15.00;;;;;;;-0.81;65.93;147471.73;1713201;82;22087;-62
2022/02/04 08:00:26;;;;;;;85.03;36.93;;;;;;;-0.82;65.57;147469.16;1731563;81;21037;-63
2022/02/04 08:02:53;;;;;;;32.35;14.18;;;;;;;-0.84;65.87;147465.34;1736863;81;21093;-61
2022/02/04 08:05:25;;;;;;;25.17;9.68;;;;;;;-0.82;65.79;147469.16;1732234;81;21049;-61
2022/02/04 08:07:55;;;;;;;74.12;33.25;;;;;;;-0.82;65.25;147469.16;1733341;81;21964;-61
2022/02/04 08:10:38;;;;;;;25.37;9.88;;;;;;;-0.87;64.74;147457.63;1731002;81;21100;-62
2022/02/04 08:16:15;;;;;;;12.60;5.70;;;;;;;-0.93;64.89;147442.16;1733780;81;21616;-61
2022/02/04 08:20:52;;;;;;;69.53;28.57;;;;;;;-0.93;65.11;147443.47;1728323;81;21053;-62
2022/02/04 08:23:33;;;;;;;140.65;54.13;;;;;;;-0.94;65.03;147440.91;1731855;81;21580;-62
2022/02/04 08:28:47;;;;;;;;;;;;;;;-0.92;64.53;147446.03;1737862;81;21072;-63
2022/02/04 08:31:24;;;;;;;67.75;25.02;;;;;;;-0.89;64.57;147452.44;1733429;81;20226;-61
2022/02/04 08:52:17;;;;;;;34.48;13.65;;;;;;;-0.52;62.66;147545.06;1764556;80;21121;-62
2022/02/04 08:54:40;;;;;;;14.13;6.40;;;;;;;-0.49;62.32;147551.50;1758350;80;21518;-61
2022/02/04 08:57:10;;;;;;;89.03;38.50;;;;;;;-0.42;62.67;147569.50;1744993;80;21140;-62
2022/02/04 09:02:52;;;;;;;40.67;18.20;;;;;;;-0.31;61.20;147597.84;1761583;80;21522;-61
2022/02/04 09:04:40;;;;;;;35.50;17.55;;;;;;;-0.27;60.53;147605.55;1703652;81;21060;-62
2022/02/04 09:07:07;;;;;;;80.55;32.73;;;;;;;-0.27;60.23;147605.55;1752389;81;21091;-61
2022/02/04 09:09:49;;;;;;;139.92;66.28;;;;;;;-0.28;60.03;147602.97;1727278;81;21037;-61
2022/02/04 09:16:56;;;;;;;74.80;32.75;;;;;;;-0.34;59.72;147590.06;1753395;79;21978;-62
2022/02/04 09:20:33;;;;;;;;;;;;;;;-0.44;60.83;147564.36;1791179;79;21129;-62
2022/02/04 09:22:57;;;;;;;108.03;46.68;;;;;;;-0.36;61.51;147584.94;1788754;79;20194;-63
2022/02/04 09:25:26;;;;;;;41.73;17.75;;;;;;;-0.28;61.35;147604.23;1785709;79;21121;-62
2022/02/04 09:27:54;;;;;;;13.80;4.72;;;;;;;-0.18;61.73;147628.69;1790616;79;21103;-62
2022/02/04 09:30:23;;;;;;;8.18;3.42;;;;;;;-0.07;60.98;147657.02;1799392;79;21048;-61
2022/02/04 09:32:51;;;;;;;65.28;28.27;;;;;;;-0.04;60.25;147664.73;1793744;79;21091;-62
2022/02/04 09:35:21;;;;;;;31.27;13.88;;;;;;;-0.06;59.78;147659.59;1786964;79;21048;-61
2022/02/04 09:37:50;;;;;;;10.88;5.10;;;;;;;-0.07;60.28;147657.02;1788032;79;21242;-62
2022/02/04 09:40:17;;;;;;;39.67;15.35;;;;;;;0.01;60.49;147675.02;1785793;79;21108;-61
2022/02/04 09:42:45;;;;;;;14.73;6.33;;;;;;;0.05;60.61;147685.31;1775256;79;21043;-61
2022/02/04 09:45:15;;;;;;;10.45;3.58;;;;;;;0.14;60.75;147708.50;1749437;80;21049;-63
2022/02/04 09:47:48;;;;;;;7.22;3.00;;;;;;;0.25;60.27;147736.80;1755504;79;21172;-63
2022/02/04 09:50:20;;;;;;;5.40;2.58;;;;;;;0.37;60.02;147766.41;1726586;80;21143;-62
2022/02/04 10:07:25;;;;;;;51.35;21.25;;;;;;;0.12;60.17;147703.36;1750575;80;21124;-62
2022/02/04 10:18:11;;;;;;;5.47;2.95;;;;;;;0.28;61.05;147743.25;1753530;79;21466;-62
2022/02/04 10:20:39;;;;;;;;;;;;;;;0.32;60.68;147753.55;1755854;80;21650;-61
2022/02/04 10:23:10;;;;;;;85.72;32.53;;;;;;;0.36;61.16;147762.56;1732035;81;20309;-61
2022/02/04 10:25:41;;;;;;;12.60;6.30;;;;;;;0.40;60.86;147772.86;1724696;81;21029;-61
2022/02/04 10:28:27;;;;;;;118.40;49.50;;;;;;;0.40;60.81;147772.86;1755605;81;21072;-61
2022/02/04 10:31:09;;;;;;;11.22;4.33;;;;;;;0.38;60.80;147767.72;1752708;79;22416;-62
2022/02/04 10:34:09;;;;;;;7.42;3.00;;;;;;;0.31;59.87;147750.97;1756184;79;21093;-62
2022/02/04 10:36:46;;;;;;;28.52;11.63;;;;;;;0.26;60.48;147738.11;1784431;79;21015;-62
2022/02/04 10:48:03;;;;;;;63.52;25.43;;;;;;;0.40;60.56;147774.13;1786331;78;21083;-61
2022/02/04 10:57:04;;;;;;;6.78;2.75;;;;;;;0.51;60.29;147799.91;1789647;78;21028;-63
2022/02/04 10:59:46;;;;;;;9.85;3.02;;;;;;;0.54;59.83;147807.61;1786845;79;21127;-61
2022/02/04 11:02:13;;;;;;;5.70;2.27;;;;;;;0.55;59.74;147810.19;1787788;79;21596;-61
2022/02/04 11:04:41;;;;;;;8.65;4.30;;;;;;;0.54;59.58;147808.88;1782287;79;21099;-62
2022/02/04 11:21:47;;;;;;;20.85;10.00;;;;;;;0.67;60.12;147841.11;1763887;79;21181;-61
2022/02/04 11:31:41;;;;;;;7.58;3.50;;;;;;;0.73;59.93;147855.25;1812543;78;22084;-63
2022/02/04 11:34:37;;;;;;;6.05;3.20;;;;;;;0.79;60.19;147869.42;1782860;78;21115;-62
2022/02/04 11:54:33;;;;;;;9.05;3.08;;;;;;;1.36;58.23;148012.39;1798576;78;21124;-63
2022/02/04 11:57:12;;;;;;;6.90;3.60;;;;;;;1.35;58.55;148009.81;1803168;78;21432;-63
2022/02/04 11:59:44;;;;;;;14.78;4.53;;;;;;;1.40;58.66;148022.69;1804489;78;21104;-63
2022/02/04 12:02:30;;;;;;;12.35;4.47;;;;;;;1.48;58.89;148040.77;1808641;78;21003;-63
2022/02/04 12:05:20;;;;;;;7.35;3.65;;;;;;;1.56;58.87;148061.37;1808507;78;21090;-63
2022/02/04 12:08:19;;;;;;;11.10;3.65;;;;;;;1.62;58.50;148076.81;1814252;78;21126;-63
2022/02/04 12:10:55;;;;;;;9.93;3.25;;;;;;;1.66;58.52;148087.17;1802276;78;21040;-62
2022/02/04 12:13:24;;;;;;;9.53;3.50;;;;;;;1.70;57.46;148096.16;1807624;78;21048;-63
2022/02/04 12:16:02;;;;;;;9.63;3.47;;;;;;;1.64;57.11;148081.97;1804812;78;20988;-62
2022/02/04 12:18:43;;;;;;;6.60;3.37;;;;;;;1.61;57.20;148072.98;1809708;78;21383;-61
2022/02/04 12:21:17;;;;;;;11.03;3.80;;;;;;;1.60;57.39;148071.66;1807922;78;21200;-62
2022/02/04 12:23:49;;;;;;;9.08;3.83;;;;;;;1.63;57.76;148079.39;1772934;79;21512;-64
2022/02/04 12:26:33;;;;;;;6.78;3.58;;;;;;;1.68;58.20;148092.31;1772897;80;21027;-66
2022/02/04 12:29:06;;;;;;;11.83;3.35;;;;;;;1.82;58.25;148125.80;1774513;80;21024;-62
2022/02/04 12:31:42;;;;;;;9.25;3.12;;;;;;;1.93;57.85;148154.17;1751054;80;20918;-62
2022/02/04 12:34:18;;;;;;;8.13;3.33;;;;;;;2.02;57.90;148176.09;1773053;80;21832;-61
2022/02/04 12:36:55;;;;;;;6.10;3.42;;;;;;;2.14;57.97;148205.75;1738282;81;21075;-63
2022/02/04 12:39:29;;;;;;;5.05;2.90;;;;;;;2.26;57.89;148236.66;1773268;80;21079;-63
2022/02/04 12:41:59;;;;;;;12.05;4.17;;;;;;;2.39;57.43;148267.63;1739366;81;21529;-62
2022/02/04 12:44:36;;;;;;;10.95;4.90;;;;;;;2.41;57.11;148274.05;1774224;78;21415;-63
2022/02/04 12:47:13;;;;;;;10.43;4.03;;;;;;;2.47;57.15;148288.25;1753006;80;21159;-63
2022/02/04 12:49:55;;;;;;;14.35;4.72;;;;;;;2.54;57.16;148306.34;1776288;78;21103;-63
2022/02/04 12:52:29;;;;;;;9.43;3.90;;;;;;;2.63;57.13;148326.95;1773076;78;21072;-63
2022/02/04 12:55:13;;;;;;;13.08;4.42;;;;;;;2.69;57.02;148342.42;1741095;81;21135;-62
2022/02/04 12:57:42;;;;;;;11.43;4.72;;;;;;;2.76;56.99;148359.19;1771945;80;21064;-62
2022/02/04 13:03:15;;;;;;;10.48;4.25;;;;;;;2.91;56.65;148397.91;1778623;80;21452;-64
2022/02/04 13:11:12;;;;;;;10.28;4.83;;;;;;;3.03;56.02;148426.27;1736762;81;21031;-63
2022/02/04 13:13:48;;;;;;;9.45;4.30;;;;;;;3.02;56.01;148425.00;1747197;80;21077;-62
2022/02/04 13:16:30;;;;;;;11.33;5.40;;;;;;;3.01;56.02;148422.42;1746399;81;21528;-62
2022/02/04 13:18:59;;;;;;;12.30;5.28;;;;;;;3.01;56.00;148422.42;1770345;80;21060;-64
2022/02/04 13:21:32;;;;;;;12.73;5.55;;;;;;;3.01;56.17;148423.69;1764229;80;21426;-62
2022/02/04 13:24:05;;;;;;;14.55;5.50;;;;;;;3.03;56.32;148427.58;1747701;81;21047;-64
2022/02/04 13:26:32;;;;;;;15.53;6.08;;;;;;;3.09;56.32;148443.05;1750874;81;21156;-63
2022/02/04 13:29:02;;;;;;;12.58;5.20;;;;;;;3.12;56.21;148449.52;1735249;81;21474;-64
2022/02/04 13:31:30;;;;;;;11.65;5.42;;;;;;;3.13;56.07;148453.36;1727160;82;21107;-63
2022/02/04 13:33:57;;;;;;;15.40;6.35;;;;;;;3.10;56.14;148445.62;1720084;80;21124;-63
2022/02/04 13:36:52;;;;;;;11.80;6.03;;;;;;;3.07;56.31;148436.58;1731805;80;21177;-62
2022/02/04 13:42:05;;;;;;;11.88;5.97;;;;;;;3.04;56.26;148428.84;1726982;81;21094;-63
2022/02/04 13:47:22;;;;;;;12.63;5.65;;;;;;;2.97;56.39;148413.37;1781753;79;21016;-62
2022/02/04 13:58:38;;;;;;;13.32;5.25;;;;;;;2.94;56.71;148404.33;1788457;79;20968;-62
2022/02/04 14:01:10;;;;;;;12.07;5.00;;;;;;;2.90;56.96;148395.33;1781531;79;21125;-63
2022/02/04 14:03:41;;;;;;;10.58;4.00;;;;;;;2.89;57.17;148391.44;1770039;79;21064;-63
2022/02/04 14:06:18;;;;;;;13.05;5.45;;;;;;;2.86;57.28;148386.28;1782270;79;21105;-63
2022/02/04 14:08:52;;;;;;;14.13;6.22;;;;;;;2.81;57.34;148373.41;1788112;79;21463;-64
2022/02/04 14:11:37;;;;;;;14.35;6.45;;;;;;;2.76;57.46;148360.45;1767618;79;21442;-63
2022/02/04 14:14:08;;;;;;;16.73;6.33;;;;;;;2.70;57.59;148345.00;1785406;79;21060;-62
2022/02/04 14:16:36;;;;;;;18.92;7.25;;;;;;;2.63;57.86;148326.95;1776752;79;21029;-61
2022/02/04 14:19:04;;;;;;;21.90;7.40;;;;;;;2.63;58.09;148326.95;1791239;79;21016;-62
2022/02/04 14:21:31;;;;;;;16.30;6.83;;;;;;;2.61;58.16;148321.80;1797950;79;21432;-62
2022/02/04 14:24:05;;;;;;;14.87;6.90;;;;;;;2.57;58.07;148312.75;1801541;79;21025;-62
2022/02/04 14:26:35;;;;;;;18.25;6.85;;;;;;;2.52;58.11;148301.13;1795439;79;21371;-62
2022/02/04 14:29:07;;;;;;;16.15;7.08;;;;;;;2.48;58.17;148290.83;1779632;79;20981;-63
2022/02/04 14:31:44;;;;;;;21.82;6.97;;;;;;;2.45;58.33;148283.09;1799832;79;21115;-64
2022/02/04 15:01:29;;;;;;;23.83;8.60;;;;;;;2.22;59.91;148226.36;1791690;79;21088;-62
2022/02/04 15:04:06;;;;;;;19.35;8.18;;;;;;;2.25;59.93;148232.83;1782595;79;21068;-62
2022/02/04 15:06:34;;;;;;;27.80;9.00;;;;;;;2.22;60.05;148226.36;1782453;79;21106;-62
2022/02/04 15:09:03;;;;;;;30.65;10.08;;;;;;;2.19;60.20;148218.62;1790227;79;21039;-62
2022/02/04 15:11:32;;;;;;;35.75;10.40;;;;;;;2.14;60.45;148207.02;1786090;78;21376;-61
2022/02/04 15:14:00;;;;;;;47.80;13.28;;;;;;;2.11;60.71;148198.02;1792091;79;21505;-61
2022/02/04 15:16:27;;;;;;;41.63;15.50;;;;;;;2.09;60.96;148194.13;1786053;79;21031;-60
2022/02/04 15:18:54;;;;;;;34.55;13.40;;;;;;;2.09;61.32;148192.81;1787135;79;21048;-62
2022/02/04 15:21:22;;;;;;;40.50;12.28;;;;;;;2.07;61.56;148187.67;1794960;79;21033;-61
2022/02/04 15:23:52;;;;;;;35.63;11.57;;;;;;;2.03;61.74;148178.67;1791009;79;21094;-61
2022/02/04 15:26:24;;;;;;;29.18;10.58;;;;;;;1.99;61.86;148168.38;1795847;79;21508;-61
2022/02/04 15:29:00;;;;;;;17.42;7.40;;;;;;;1.95;62.06;148159.33;1774553;79;21083;-62
2022/02/04 15:31:44;;;;;;;15.75;6.50;;;;;;;1.92;62.27;148150.30;1793310;79;21102;-61
2022/02/04 15:34:09;;;;;;;11.40;5.65;;;;;;;1.85;62.37;148133.53;1793079;79;21116;-61
2022/02/04 15:36:42;;;;;;;9.00;5.10;;;;;;;1.78;62.50;148115.50;1790137;79;21990;-62
2022/02/04 15:39:09;;;;;;;11.10;5.53;;;;;;;1.75;62.53;148107.77;1787503;79;21137;-62
2022/02/04 15:41:38;;;;;;;13.28;4.97;;;;;;;1.73;62.31;148103.88;1790029;79;21608;-62
2022/02/04 15:44:16;;;;;;;12.45;5.97;;;;;;;1.73;62.28;148102.63;1791200;79;21115;-61
2022/02/04 15:46:47;;;;;;;15.58;5.80;;;;;;;1.74;62.23;148105.19;1789887;79;21399;-61
2022/02/04 15:54:39;;;;;;;13.72;5.17;;;;;;;1.78;61.85;148115.50;1778938;79;21083;-61
2022/02/04 15:59:59;;;;;;;16.07;5.62;;;;;;;1.74;61.54;148105.19;1788251;79;26075;-61
2022/02/04 16:04:39;;;;;;;14.55;5.92;;;;;;;1.69;61.75;148093.58;1733639;80;21080;-62
2022/02/04 16:07:01;;;;;;;15.25;5.62;;;;;;;1.67;61.85;148088.44;1764852;80;21017;-62
2022/02/04 16:09:30;;;;;;;17.40;6.37;;;;;;;1.64;62.07;148081.97;1723675;80;21081;-61
2022/02/04 16:12:16;;;;;;;12.07;5.83;;;;;;;1.63;62.23;148079.39;1756918;79;21096;-62
2022/02/04 16:14:48;;;;;;;13.58;6.35;;;;;;;1.61;62.41;148074.23;1719121;80;21123;-62
2022/02/04 16:17:23;;;;;;;15.50;6.10;;;;;;;1.59;62.58;148069.09;1731698;81;21011;-62
2022/02/04 16:19:45;;;;;;;11.57;5.58;;;;;;;1.57;62.75;148063.94;1750199;80;21032;-62
2022/02/04 16:22:16;;;;;;;11.38;6.35;;;;;;;1.55;62.93;148058.78;1730506;82;21104;-62
2022/02/04 16:29:40;;;;;;;14.45;6.62;;;;;;;1.53;63.48;148054.91;1755930;80;21438;-62
2022/02/04 16:32:07;;;;;;;11.75;6.10;;;;;;;1.59;63.53;148069.09;1774854;79;21221;-61
2022/02/04 16:34:35;;;;;;;18.70;6.33;;;;;;;1.61;63.46;148072.98;1761667;79;21063;-62
2022/02/04 16:37:05;;;;;;;13.43;5.62;;;;;;;1.61;63.35;148074.23;1752879;81;21442;-62
2022/02/04 16:39:33;;;;;;;12.35;6.03;;;;;;;1.60;63.31;148071.66;1767477;80;21514;-61
2022/02/04 16:42:10;;;;;;;11.90;5.42;;;;;;;1.60;63.21;148070.41;1752528;80;21147;-63
2022/02/04 16:44:32;;;;;;;16.15;6.58;;;;;;;1.60;63.08;148071.66;1754989;81;21018;-61
2022/02/04 16:47:00;;;;;;;15.78;6.12;;;;;;;1.59;63.02;148069.09;1764699;81;21069;-62
2022/02/04 16:49:28;;;;;;;13.25;6.42;;;;;;;1.59;62.92;148067.83;1773406;80;20960;-60
2022/02/04 16:51:55;;;;;;;15.85;7.03;;;;;;;1.57;62.83;148065.25;1779427;79;21110;-61
2022/02/04 16:54:24;;;;;;;19.02;6.65;;;;;;;1.56;62.76;148061.37;1769356;79;20972;-61
2022/02/04 16:56:52;;;;;;;15.38;7.25;;;;;;;1.56;62.72;148061.37;1779963;79;21711;-60
2022/02/04 16:59:19;;;;;;;16.80;7.45;;;;;;;1.56;62.59;148062.69;1794210;79;22143;-60
2022/02/04 17:01:46;;;;;;;18.50;7.22;;;;;;;1.57;62.48;148065.25;1795477;79;20973;-60
2022/02/04 17:04:13;;;;;;;19.42;8.15;;;;;;;1.59;62.51;148069.09;1798107;79;21766;-61
2022/02/04 17:06:46;;;;;;;18.35;6.78;;;;;;;1.62;62.56;148076.81;1802909;79;21080;-60
2022/02/04 17:11:45;;;;;;;13.05;6.58;;;;;;;1.68;62.18;148092.31;1787924;79;21647;-61
2022/02/04 17:14:13;;;;;;;16.73;6.37;;;;;;;1.69;62.04;148094.89;1773507;79;21051;-61
2022/02/04 17:16:45;;;;;;;13.05;6.45;;;;;;;1.69;62.00;148094.89;1788131;79;21105;-61
2022/02/04 17:19:14;;;;;;;12.70;5.97;;;;;;;1.68;61.97;148092.31;1786206;79;21082;-61
2022/02/04 17:21:41;;;;;;;21.15;7.45;;;;;;;1.67;61.97;148089.75;1769870;79;21477;-61
2022/02/04 17:24:12;;;;;;;19.35;7.37;;;;;;;1.67;62.08;148089.75;1768088;79;21558;-61
2022/02/04 17:26:36;;;;;;;15.18;7.53;;;;;;;1.66;62.28;148087.17;1788017;79;20870;-62
2022/02/04 17:29:03;;;;;;;16.35;7.37;;;;;;;1.66;62.37;148087.17;1782695;79;21458;-61